Terminal Aerodrome Forecast
Issued by NWS Wilmington, OH

Current Version | Previous Version | Graphics & Text | Print | Product List | Glossary On
Versions: 1 2 3 4 5 6 7 8 9 10 11 12 13 14 15 16 17 18
000
FTUS41 KILN 061740
TAFILN
TAF
KILN 061740Z 0618/0718 30007KT 2SM -RA BR OVC004
     FM062000 28009KT 3SM -DZ BR OVC005
     FM070000 29014G22KT P6SM OVC007
     FM070700 28008KT P6SM SCT200
     FM071300 24007KT P6SM BKN150=

USA.gov is the U.S. government's official web portal to all federal, state and local government web resources and services.